sensor_id;sensor_type;location;lat;lon;timestamp;P1;durP1;ratioP1;P2;durP2;ratioP2
67965;SDS011;54749;47.850;9.002;2024-03-08T00:00:11;63.10;;;19.15;;
67965;SDS011;54749;47.850;9.002;2024-03-08T00:03:01;57.85;;;19.08;;
67965;SDS011;54749;47.850;9.002;2024-03-08T00:05:30;60.20;;;19.27;;
67965;SDS011;54749;47.850;9.002;2024-03-08T00:07:57;54.60;;;17.77;;
67965;SDS011;54749;47.850;9.002;2024-03-08T00:10:24;58.38;;;18.52;;
67965;SDS011;54749;47.850;9.002;2024-03-08T00:12:54;58.05;;;20.05;;
67965;SDS011;54749;47.850;9.002;2024-03-08T00:15:21;63.65;;;19.77;;
67965;SDS011;54749;47.850;9.002;2024-03-08T00:17:49;63.80;;;19.17;;
67965;SDS011;54749;47.850;9.002;2024-03-08T00:20:17;63.17;;;19.17;;
67965;SDS011;54749;47.850;9.002;2024-03-08T00:22:45;54.10;;;17.27;;
67965;SDS011;54749;47.850;9.002;2024-03-08T00:25:13;57.40;;;18.40;;
67965;SDS011;54749;47.850;9.002;2024-03-08T00:27:41;57.00;;;17.80;;
67965;SDS011;54749;47.850;9.002;2024-03-08T00:30:08;57.10;;;18.00;;
67965;SDS011;54749;47.850;9.002;2024-03-08T00:32:36;56.42;;;17.98;;
67965;SDS011;54749;47.850;9.002;2024-03-08T00:35:04;61.08;;;18.40;;
67965;SDS011;54749;47.850;9.002;2024-03-08T00:37:34;56.42;;;17.65;;
67965;SDS011;54749;47.850;9.002;2024-03-08T00:40:02;52.67;;;17.35;;
67965;SDS011;54749;47.850;9.002;2024-03-08T00:42:29;55.57;;;18.10;;
67965;SDS011;54749;47.850;9.002;2024-03-08T00:44:56;53.80;;;17.80;;
67965;SDS011;54749;47.850;9.002;2024-03-08T00:47:25;60.03;;;17.85;;
67965;SDS011;54749;47.850;9.002;2024-03-08T00:49:53;52.60;;;16.13;;
67965;SDS011;54749;47.850;9.002;2024-03-08T00:52:23;48.83;;;16.60;;
67965;SDS011;54749;47.850;9.002;2024-03-08T00:54:51;56.40;;;16.90;;
67965;SDS011;54749;47.850;9.002;2024-03-08T00:57:19;50.92;;;16.63;;
67965;SDS011;54749;47.850;9.002;2024-03-08T00:59:46;52.65;;;17.60;;
67965;SDS011;54749;47.850;9.002;2024-03-08T01:02:13;57.75;;;18.42;;
67965;SDS011;54749;47.850;9.002;2024-03-08T01:04:41;52.65;;;17.65;;
67965;SDS011;54749;47.850;9.002;2024-03-08T01:07:08;54.63;;;16.53;;
67965;SDS011;54749;47.850;9.002;2024-03-08T01:09:35;55.95;;;18.20;;
67965;SDS011;54749;47.850;9.002;2024-03-08T01:12:02;47.00;;;15.65;;
67965;SDS011;54749;47.850;9.002;2024-03-08T01:14:30;55.45;;;17.35;;
67965;SDS011;54749;47.850;9.002;2024-03-08T01:16:57;57.40;;;18.02;;
67965;SDS011;54749;47.850;9.002;2024-03-08T01:19:25;51.53;;;16.77;;
67965;SDS011;54749;47.850;9.002;2024-03-08T01:21:52;56.67;;;17.58;;
67965;SDS011;54749;47.850;9.002;2024-03-08T01:24:23;56.90;;;17.55;;
67965;SDS011;54749;47.850;9.002;2024-03-08T01:26:50;58.42;;;18.05;;
67965;SDS011;54749;47.850;9.002;2024-03-08T01:29:17;49.17;;;15.43;;
67965;SDS011;54749;47.850;9.002;2024-03-08T01:31:44;45.67;;;14.07;;
67965;SDS011;54749;47.850;9.002;2024-03-08T01:34:11;50.20;;;17.02;;
67965;SDS011;54749;47.850;9.002;2024-03-08T01:36:38;51.72;;;17.70;;
67965;SDS011;54749;47.850;9.002;2024-03-08T01:39:05;57.33;;;17.52;;
67965;SDS011;54749;47.850;9.002;2024-03-08T01:41:35;63.25;;;18.88;;
67965;SDS011;54749;47.850;9.002;2024-03-08T01:44:03;50.23;;;16.87;;
67965;SDS011;54749;47.850;9.002;2024-03-08T01:46:30;60.90;;;17.55;;
67965;SDS011;54749;47.850;9.002;2024-03-08T01:48:58;63.72;;;19.15;;
67965;SDS011;54749;47.850;9.002;2024-03-08T01:51:28;55.58;;;18.55;;
67965;SDS011;54749;47.850;9.002;2024-03-08T01:53:59;63.00;;;17.70;;
67965;SDS011;54749;47.850;9.002;2024-03-08T01:56:29;51.47;;;16.70;;
67965;SDS011;54749;47.850;9.002;2024-03-08T01:58:59;61.10;;;18.55;;
67965;SDS011;54749;47.850;9.002;2024-03-08T02:01:26;55.85;;;17.30;;
67965;SDS011;54749;47.850;9.002;2024-03-08T02:03:54;56.55;;;17.13;;
67965;SDS011;54749;47.850;9.002;2024-03-08T02:06:21;43.65;;;15.02;;
67965;SDS011;54749;47.850;9.002;2024-03-08T02:08:49;44.57;;;14.70;;
67965;SDS011;54749;47.850;9.002;2024-03-08T02:11:16;57.10;;;17.85;;
67965;SDS011;54749;47.850;9.002;2024-03-08T02:13:44;53.58;;;16.55;;
67965;SDS011;54749;47.850;9.002;2024-03-08T02:16:11;53.45;;;16.58;;
67965;SDS011;54749;47.850;9.002;2024-03-08T02:18:38;44.70;;;15.77;;
67965;SDS011;54749;47.850;9.002;2024-03-08T02:21:07;54.60;;;17.30;;
67965;SDS011;54749;47.850;9.002;2024-03-08T02:23:35;50.95;;;15.23;;
67965;SDS011;54749;47.850;9.002;2024-03-08T02:26:04;54.33;;;17.27;;
67965;SDS011;54749;47.850;9.002;2024-03-08T02:28:32;62.72;;;18.92;;
67965;SDS011;54749;47.850;9.002;2024-03-08T02:31:00;60.20;;;19.92;;
67965;SDS011;54749;47.850;9.002;2024-03-08T02:33:27;50.73;;;16.23;;
67965;SDS011;54749;47.850;9.002;2024-03-08T02:35:55;54.28;;;17.90;;
67965;SDS011;54749;47.850;9.002;2024-03-08T02:38:23;65.43;;;19.95;;
67965;SDS011;54749;47.850;9.002;2024-03-08T02:40:53;46.10;;;15.63;;
67965;SDS011;54749;47.850;9.002;2024-03-08T02:43:21;65.63;;;20.42;;
67965;SDS011;54749;47.850;9.002;2024-03-08T02:45:50;57.63;;;19.47;;
67965;SDS011;54749;47.850;9.002;2024-03-08T02:48:17;56.78;;;18.00;;
67965;SDS011;54749;47.850;9.002;2024-03-08T02:50:45;52.08;;;17.60;;
67965;SDS011;54749;47.850;9.002;2024-03-08T02:53:13;53.15;;;17.95;;
67965;SDS011;54749;47.850;9.002;2024-03-08T02:55:41;50.78;;;16.55;;
67965;SDS011;54749;47.850;9.002;2024-03-08T02:58:09;61.60;;;20.23;;
67965;SDS011;54749;47.850;9.002;2024-03-08T03:00:37;59.10;;;19.75;;
67965;SDS011;54749;47.850;9.002;2024-03-08T03:03:08;58.08;;;18.85;;
67965;SDS011;54749;47.850;9.002;2024-03-08T03:05:35;58.08;;;18.88;;
67965;SDS011;54749;47.850;9.002;2024-03-08T03:08:03;60.78;;;18.23;;
67965;SDS011;54749;47.850;9.002;2024-03-08T03:10:36;55.87;;;18.63;;
67965;SDS011;54749;47.850;9.002;2024-03-08T03:13:04;54.92;;;17.92;;
67965;SDS011;54749;47.850;9.002;2024-03-08T03:15:31;60.85;;;19.23;;
67965;SDS011;54749;47.850;9.002;2024-03-08T03:18:01;60.33;;;19.33;;
67965;SDS011;54749;47.850;9.002;2024-03-08T03:20:28;57.85;;;18.60;;
67965;SDS011;54749;47.850;9.002;2024-03-08T03:23:08;56.93;;;19.23;;
67965;SDS011;54749;47.850;9.002;2024-03-08T03:25:36;46.85;;;17.13;;
67965;SDS011;54749;47.850;9.002;2024-03-08T03:28:06;42.53;;;14.38;;
67965;SDS011;54749;47.850;9.002;2024-03-08T03:30:34;37.80;;;13.60;;
67965;SDS011;54749;47.850;9.002;2024-03-08T03:33:02;52.50;;;16.55;;
67965;SDS011;54749;47.850;9.002;2024-03-08T03:35:34;51.70;;;17.60;;
67965;SDS011;54749;47.850;9.002;2024-03-08T03:38:04;46.03;;;14.93;;
67965;SDS011;54749;47.850;9.002;2024-03-08T03:40:37;51.28;;;17.58;;
67965;SDS011;54749;47.850;9.002;2024-03-08T03:43:07;42.08;;;14.80;;
67965;SDS011;54749;47.850;9.002;2024-03-08T03:45:37;43.70;;;15.38;;
67965;SDS011;54749;47.850;9.002;2024-03-08T03:48:06;43.30;;;15.13;;
67965;SDS011;54749;47.850;9.002;2024-03-08T03:50:37;42.60;;;13.93;;
67965;SDS011;54749;47.850;9.002;2024-03-08T03:53:06;39.85;;;13.65;;
67965;SDS011;54749;47.850;9.002;2024-03-08T03:55:37;60.25;;;19.10;;
67965;SDS011;54749;47.850;9.002;2024-03-08T03:58:08;54.83;;;17.23;;
67965;SDS011;54749;47.850;9.002;2024-03-08T04:00:38;52.80;;;16.87;;
67965;SDS011;54749;47.850;9.002;2024-03-08T04:03:05;47.58;;;15.27;;
67965;SDS011;54749;47.850;9.002;2024-03-08T04:05:33;47.70;;;16.30;;
67965;SDS011;54749;47.850;9.002;2024-03-08T04:08:00;54.78;;;18.70;;
67965;SDS011;54749;47.850;9.002;2024-03-08T04:10:27;55.75;;;16.90;;
67965;SDS011;54749;47.850;9.002;2024-03-08T04:12:55;44.30;;;14.83;;
67965;SDS011;54749;47.850;9.002;2024-03-08T04:15:23;57.55;;;17.70;;
67965;SDS011;54749;47.850;9.002;2024-03-08T04:17:51;51.03;;;18.13;;
67965;SDS011;54749;47.850;9.002;2024-03-08T04:20:18;50.72;;;16.38;;
67965;SDS011;54749;47.850;9.002;2024-03-08T04:22:45;52.55;;;16.95;;
67965;SDS011;54749;47.850;9.002;2024-03-08T04:25:16;53.23;;;16.33;;
67965;SDS011;54749;47.850;9.002;2024-03-08T04:27:44;53.17;;;16.85;;
67965;SDS011;54749;47.850;9.002;2024-03-08T04:30:11;51.75;;;18.00;;
67965;SDS011;54749;47.850;9.002;2024-03-08T04:32:39;56.22;;;18.08;;
67965;SDS011;54749;47.850;9.002;2024-03-08T04:35:08;48.47;;;16.55;;
67965;SDS011;54749;47.850;9.002;2024-03-08T04:37:35;45.00;;;15.77;;
67965;SDS011;54749;47.850;9.002;2024-03-08T04:40:03;56.45;;;18.00;;
67965;SDS011;54749;47.850;9.002;2024-03-08T04:42:31;48.50;;;15.75;;
67965;SDS011;54749;47.850;9.002;2024-03-08T04:44:59;50.20;;;16.92;;
67965;SDS011;54749;47.850;9.002;2024-03-08T04:47:27;52.47;;;17.35;;
67965;SDS011;54749;47.850;9.002;2024-03-08T04:49:55;47.10;;;16.50;;
67965;SDS011;54749;47.850;9.002;2024-03-08T04:52:23;52.42;;;17.88;;
67965;SDS011;54749;47.850;9.002;2024-03-08T04:54:50;51.97;;;16.75;;
67965;SDS011;54749;47.850;9.002;2024-03-08T04:57:17;49.95;;;16.60;;
67965;SDS011;54749;47.850;9.002;2024-03-08T04:59:46;58.40;;;19.27;;
67965;SDS011;54749;47.850;9.002;2024-03-08T05:02:13;42.30;;;14.73;;
67965;SDS011;54749;47.850;9.002;2024-03-08T05:04:41;58.05;;;19.48;;
67965;SDS011;54749;47.850;9.002;2024-03-08T05:07:10;46.58;;;15.93;;
67965;SDS011;54749;47.850;9.002;2024-03-08T05:09:37;46.20;;;15.80;;
67965;SDS011;54749;47.850;9.002;2024-03-08T05:12:05;41.85;;;14.05;;
67965;SDS011;54749;47.850;9.002;2024-03-08T05:14:32;45.07;;;16.07;;
67965;SDS011;54749;47.850;9.002;2024-03-08T05:17:02;55.58;;;17.17;;
67965;SDS011;54749;47.850;9.002;2024-03-08T05:19:29;54.83;;;17.27;;
67965;SDS011;54749;47.850;9.002;2024-03-08T05:22:01;47.00;;;15.80;;
67965;SDS011;54749;47.850;9.002;2024-03-08T05:24:28;49.97;;;15.90;;
67965;SDS011;54749;47.850;9.002;2024-03-08T05:26:57;51.30;;;16.97;;
67965;SDS011;54749;47.850;9.002;2024-03-08T05:29:26;54.25;;;17.15;;
67965;SDS011;54749;47.850;9.002;2024-03-08T05:31:53;53.13;;;17.45;;
67965;SDS011;54749;47.850;9.002;2024-03-08T05:34:21;56.78;;;17.38;;
67965;SDS011;54749;47.850;9.002;2024-03-08T05:36:49;58.42;;;19.02;;
67965;SDS011;54749;47.850;9.002;2024-03-08T05:39:18;54.33;;;18.17;;
67965;SDS011;54749;47.850;9.002;2024-03-08T05:41:47;51.28;;;17.25;;
67965;SDS011;54749;47.850;9.002;2024-03-08T05:44:14;57.75;;;17.90;;
67965;SDS011;54749;47.850;9.002;2024-03-08T05:46:44;58.15;;;18.17;;
67965;SDS011;54749;47.850;9.002;2024-03-08T05:49:13;46.33;;;14.63;;
67965;SDS011;54749;47.850;9.002;2024-03-08T05:51:41;49.33;;;16.57;;
67965;SDS011;54749;47.850;9.002;2024-03-08T05:54:10;56.05;;;17.73;;
67965;SDS011;54749;47.850;9.002;2024-03-08T05:56:42;45.20;;;14.85;;
67965;SDS011;54749;47.850;9.002;2024-03-08T05:59:11;49.33;;;16.27;;
67965;SDS011;54749;47.850;9.002;2024-03-08T06:01:39;47.20;;;14.65;;
67965;SDS011;54749;47.850;9.002;2024-03-08T06:04:09;52.47;;;16.13;;
67965;SDS011;54749;47.850;9.002;2024-03-08T06:06:39;51.83;;;16.42;;
67965;SDS011;54749;47.850;9.002;2024-03-08T06:09:07;60.60;;;17.10;;
67965;SDS011;54749;47.850;9.002;2024-03-08T06:11:44;48.05;;;14.18;;
67965;SDS011;54749;47.850;9.002;2024-03-08T06:14:12;42.80;;;13.90;;
67965;SDS011;54749;47.850;9.002;2024-03-08T06:16:39;43.60;;;14.30;;
67965;SDS011;54749;47.850;9.002;2024-03-08T06:19:06;44.30;;;13.80;;
67965;SDS011;54749;47.850;9.002;2024-03-08T06:21:35;47.90;;;14.57;;
67965;SDS011;54749;47.850;9.002;2024-03-08T06:24:02;47.53;;;15.18;;
67965;SDS011;54749;47.850;9.002;2024-03-08T06:26:29;43.90;;;13.68;;
67965;SDS011;54749;47.850;9.002;2024-03-08T06:28:58;53.37;;;15.73;;
67965;SDS011;54749;47.850;9.002;2024-03-08T06:31:25;42.67;;;14.30;;
67965;SDS011;54749;47.850;9.002;2024-03-08T06:33:53;51.28;;;15.63;;
67965;SDS011;54749;47.850;9.002;2024-03-08T06:36:23;52.10;;;15.98;;
67965;SDS011;54749;47.850;9.002;2024-03-08T06:38:51;48.20;;;15.32;;
67965;SDS011;54749;47.850;9.002;2024-03-08T06:41:19;42.60;;;14.87;;
67965;SDS011;54749;47.850;9.002;2024-03-08T06:43:46;47.95;;;15.50;;
67965;SDS011;54749;47.850;9.002;2024-03-08T06:46:16;44.42;;;14.70;;
67965;SDS011;54749;47.850;9.002;2024-03-08T06:48:43;50.85;;;15.55;;
67965;SDS011;54749;47.850;9.002;2024-03-08T06:51:10;46.95;;;15.57;;
67965;SDS011;54749;47.850;9.002;2024-03-08T06:53:38;46.67;;;15.13;;
67965;SDS011;54749;47.850;9.002;2024-03-08T06:56:06;49.88;;;16.25;;
67965;SDS011;54749;47.850;9.002;2024-03-08T06:58:35;45.38;;;15.20;;
67965;SDS011;54749;47.850;9.002;2024-03-08T07:01:02;52.05;;;16.73;;
67965;SDS011;54749;47.850;9.002;2024-03-08T07:03:35;43.60;;;14.80;;
67965;SDS011;54749;47.850;9.002;2024-03-08T07:06:02;44.13;;;15.00;;
67965;SDS011;54749;47.850;9.002;2024-03-08T07:08:30;42.72;;;14.75;;
67965;SDS011;54749;47.850;9.002;2024-03-08T07:10:58;46.50;;;14.43;;
67965;SDS011;54749;47.850;9.002;2024-03-08T07:13:26;47.63;;;15.43;;
67965;SDS011;54749;47.850;9.002;2024-03-08T07:15:56;48.15;;;14.73;;
67965;SDS011;54749;47.850;9.002;2024-03-08T07:18:23;43.07;;;13.77;;
67965;SDS011;54749;47.850;9.002;2024-03-08T07:20:51;51.10;;;15.85;;
67965;SDS011;54749;47.850;9.002;2024-03-08T07:23:18;43.25;;;14.05;;
67965;SDS011;54749;47.850;9.002;2024-03-08T07:26:04;46.75;;;15.80;;
67965;SDS011;54749;47.850;9.002;2024-03-08T07:28:31;43.05;;;13.48;;
67965;SDS011;54749;47.850;9.002;2024-03-08T07:30:58;42.37;;;14.23;;
67965;SDS011;54749;47.850;9.002;2024-03-08T07:33:39;53.15;;;16.95;;
67965;SDS011;54749;47.850;9.002;2024-03-08T07:36:07;50.63;;;15.27;;
67965;SDS011;54749;47.850;9.002;2024-03-08T07:38:35;45.10;;;14.77;;
67965;SDS011;54749;47.850;9.002;2024-03-08T07:41:03;32.72;;;11.88;;
67965;SDS011;54749;47.850;9.002;2024-03-08T07:43:31;42.43;;;14.57;;
67965;SDS011;54749;47.850;9.002;2024-03-08T07:46:00;47.60;;;15.20;;
67965;SDS011;54749;47.850;9.002;2024-03-08T07:48:27;40.58;;;14.38;;
67965;SDS011;54749;47.850;9.002;2024-03-08T07:50:54;43.50;;;14.65;;
67965;SDS011;54749;47.850;9.002;2024-03-08T07:53:22;42.33;;;14.30;;
67965;SDS011;54749;47.850;9.002;2024-03-08T07:55:52;45.07;;;14.33;;
67965;SDS011;54749;47.850;9.002;2024-03-08T07:58:19;47.95;;;15.60;;
67965;SDS011;54749;47.850;9.002;2024-03-08T08:00:46;42.42;;;14.30;;
67965;SDS011;54749;47.850;9.002;2024-03-08T08:03:13;39.63;;;13.48;;
67965;SDS011;54749;47.850;9.002;2024-03-08T08:05:41;43.70;;;14.30;;
67965;SDS011;54749;47.850;9.002;2024-03-08T08:08:08;40.10;;;14.27;;
67965;SDS011;54749;47.850;9.002;2024-03-08T08:10:38;40.85;;;14.32;;
67965;SDS011;54749;47.850;9.002;2024-03-08T08:13:05;42.75;;;13.77;;
67965;SDS011;54749;47.850;9.002;2024-03-08T08:15:33;40.78;;;13.95;;
67965;SDS011;54749;47.850;9.002;2024-03-08T08:18:03;38.55;;;13.45;;
67965;SDS011;54749;47.850;9.002;2024-03-08T08:20:33;50.13;;;15.50;;
67965;SDS011;54749;47.850;9.002;2024-03-08T08:23:01;41.20;;;15.18;;
67965;SDS011;54749;47.850;9.002;2024-03-08T08:25:28;44.38;;;15.32;;
67965;SDS011;54749;47.850;9.002;2024-03-08T08:27:55;40.83;;;13.63;;
67965;SDS011;54749;47.850;9.002;2024-03-08T08:30:23;37.83;;;13.05;;
67965;SDS011;54749;47.850;9.002;2024-03-08T08:32:50;44.63;;;14.60;;
67965;SDS011;54749;47.850;9.002;2024-03-08T08:35:17;42.80;;;14.85;;
67965;SDS011;54749;47.850;9.002;2024-03-08T08:37:46;36.45;;;12.85;;
67965;SDS011;54749;47.850;9.002;2024-03-08T08:40:14;41.10;;;13.23;;
67965;SDS011;54749;47.850;9.002;2024-03-08T08:42:42;39.47;;;13.57;;
67965;SDS011;54749;47.850;9.002;2024-03-08T08:45:10;43.43;;;15.73;;
67965;SDS011;54749;47.850;9.002;2024-03-08T08:47:43;40.15;;;13.25;;
67965;SDS011;54749;47.850;9.002;2024-03-08T08:50:12;36.25;;;13.50;;
67965;SDS011;54749;47.850;9.002;2024-03-08T08:52:40;39.15;;;13.23;;
67965;SDS011;54749;47.850;9.002;2024-03-08T08:55:08;41.38;;;14.15;;
67965;SDS011;54749;47.850;9.002;2024-03-08T08:57:35;38.13;;;13.93;;
67965;SDS011;54749;47.850;9.002;2024-03-08T09:00:03;43.47;;;15.13;;
67965;SDS011;54749;47.850;9.002;2024-03-08T09:02:34;39.42;;;13.82;;
67965;SDS011;54749;47.850;9.002;2024-03-08T09:05:02;48.15;;;14.95;;
67965;SDS011;54749;47.850;9.002;2024-03-08T09:07:30;39.75;;;14.00;;
67965;SDS011;54749;47.850;9.002;2024-03-08T09:09:57;40.23;;;13.03;;
67965;SDS011;54749;47.850;9.002;2024-03-08T09:12:25;35.33;;;11.73;;
67965;SDS011;54749;47.850;9.002;2024-03-08T09:14:53;33.33;;;11.57;;
67965;SDS011;54749;47.850;9.002;2024-03-08T09:17:21;34.67;;;11.82;;
67965;SDS011;54749;47.850;9.002;2024-03-08T09:19:49;32.65;;;12.60;;
67965;SDS011;54749;47.850;9.002;2024-03-08T09:22:17;34.87;;;11.53;;
67965;SDS011;54749;47.850;9.002;2024-03-08T09:24:45;34.20;;;12.65;;
67965;SDS011;54749;47.850;9.002;2024-03-08T09:27:12;29.70;;;11.07;;
67965;SDS011;54749;47.850;9.002;2024-03-08T09:29:40;33.78;;;11.80;;
67965;SDS011;54749;47.850;9.002;2024-03-08T09:32:07;30.88;;;10.95;;
67965;SDS011;54749;47.850;9.002;2024-03-08T09:34:35;31.87;;;11.07;;
67965;SDS011;54749;47.850;9.002;2024-03-08T09:37:04;32.20;;;11.38;;
67965;SDS011;54749;47.850;9.002;2024-03-08T09:39:31;27.48;;;9.90;;
67965;SDS011;54749;47.850;9.002;2024-03-08T09:42:01;26.77;;;9.48;;
67965;SDS011;54749;47.850;9.002;2024-03-08T09:44:28;24.85;;;8.57;;
67965;SDS011;54749;47.850;9.002;2024-03-08T09:46:55;23.50;;;8.40;;
67965;SDS011;54749;47.850;9.002;2024-03-08T09:49:25;25.58;;;9.20;;
67965;SDS011;54749;47.850;9.002;2024-03-08T09:51:52;24.52;;;9.63;;
67965;SDS011;54749;47.850;9.002;2024-03-08T09:54:20;29.55;;;10.45;;
67965;SDS011;54749;47.850;9.002;2024-03-08T09:56:52;26.42;;;9.70;;
67965;SDS011;54749;47.850;9.002;2024-03-08T09:59:20;34.27;;;11.53;;
67965;SDS011;54749;47.850;9.002;2024-03-08T10:02:09;30.83;;;11.13;;
67965;SDS011;54749;47.850;9.002;2024-03-08T10:04:42;25.40;;;9.50;;
67965;SDS011;54749;47.850;9.002;2024-03-08T10:07:10;31.20;;;11.27;;
67965;SDS011;54749;47.850;9.002;2024-03-08T10:09:38;32.20;;;11.40;;
67965;SDS011;54749;47.850;9.002;2024-03-08T10:12:05;32.17;;;12.03;;
67965;SDS011;54749;47.850;9.002;2024-03-08T10:14:32;31.33;;;11.40;;
67965;SDS011;54749;47.850;9.002;2024-03-08T10:16:59;33.15;;;11.75;;
67965;SDS011;54749;47.850;9.002;2024-03-08T10:19:28;30.38;;;11.50;;
67965;SDS011;54749;47.850;9.002;2024-03-08T10:21:58;29.83;;;11.32;;
67965;SDS011;54749;47.850;9.002;2024-03-08T10:24:26;31.13;;;11.20;;
67965;SDS011;54749;47.850;9.002;2024-03-08T10:26:58;33.97;;;12.10;;
67965;SDS011;54749;47.850;9.002;2024-03-08T10:29:27;35.30;;;12.70;;
67965;SDS011;54749;47.850;9.002;2024-03-08T10:31:55;34.55;;;12.07;;
67965;SDS011;54749;47.850;9.002;2024-03-08T10:34:23;31.73;;;11.63;;
67965;SDS011;54749;47.850;9.002;2024-03-08T10:36:51;28.97;;;11.50;;
67965;SDS011;54749;47.850;9.002;2024-03-08T10:39:22;31.40;;;11.32;;
67965;SDS011;54749;47.850;9.002;2024-03-08T10:41:57;33.22;;;11.80;;
67965;SDS011;54749;47.850;9.002;2024-03-08T10:47:00;30.80;;;11.30;;
67965;SDS011;54749;47.850;9.002;2024-03-08T10:49:39;32.40;;;12.67;;
67965;SDS011;54749;47.850;9.002;2024-03-08T10:52:31;31.67;;;11.30;;
67965;SDS011;54749;47.850;9.002;2024-03-08T10:54:59;26.95;;;10.35;;
67965;SDS011;54749;47.850;9.002;2024-03-08T10:57:28;29.38;;;11.65;;
67965;SDS011;54749;47.850;9.002;2024-03-08T10:59:56;25.45;;;10.18;;
67965;SDS011;54749;47.850;9.002;2024-03-08T11:02:25;32.90;;;12.70;;
67965;SDS011;54749;47.850;9.002;2024-03-08T11:04:54;37.42;;;13.23;;
67965;SDS011;54749;47.850;9.002;2024-03-08T11:07:24;35.95;;;11.65;;
67965;SDS011;54749;47.850;9.002;2024-03-08T11:09:55;29.05;;;9.95;;
67965;SDS011;54749;47.850;9.002;2024-03-08T11:15:01;33.33;;;11.07;;
67965;SDS011;54749;47.850;9.002;2024-03-08T11:19:59;25.80;;;9.55;;
67965;SDS011;54749;47.850;9.002;2024-03-08T11:22:32;30.10;;;10.95;;
67965;SDS011;54749;47.850;9.002;2024-03-08T11:25:04;26.23;;;10.63;;
67965;SDS011;54749;47.850;9.002;2024-03-08T11:27:37;26.43;;;9.73;;
67965;SDS011;54749;47.850;9.002;2024-03-08T11:30:05;26.90;;;9.98;;
67965;SDS011;54749;47.850;9.002;2024-03-08T11:32:44;30.10;;;10.25;;
67965;SDS011;54749;47.850;9.002;2024-03-08T11:35:18;24.60;;;9.60;;
67965;SDS011;54749;47.850;9.002;2024-03-08T11:37:47;29.98;;;11.60;;
67965;SDS011;54749;47.850;9.002;2024-03-08T11:40:15;27.00;;;9.97;;
67965;SDS011;54749;47.850;9.002;2024-03-08T11:42:44;29.05;;;10.98;;
67965;SDS011;54749;47.850;9.002;2024-03-08T11:45:16;29.45;;;11.30;;
67965;SDS011;54749;47.850;9.002;2024-03-08T11:47:44;32.50;;;10.90;;
67965;SDS011;54749;47.850;9.002;2024-03-08T11:50:17;36.00;;;12.60;;
67965;SDS011;54749;47.850;9.002;2024-03-08T11:52:47;31.40;;;11.63;;
67965;SDS011;54749;47.850;9.002;2024-03-08T11:55:16;36.30;;;12.98;;
67965;SDS011;54749;47.850;9.002;2024-03-08T11:57:48;40.40;;;13.88;;
67965;SDS011;54749;47.850;9.002;2024-03-08T12:00:15;36.50;;;12.73;;
67965;SDS011;54749;47.850;9.002;2024-03-08T12:03:03;36.58;;;12.85;;
67965;SDS011;54749;47.850;9.002;2024-03-08T12:05:32;36.37;;;13.37;;
67965;SDS011;54749;47.850;9.002;2024-03-08T12:08:00;33.88;;;12.40;;
67965;SDS011;54749;47.850;9.002;2024-03-08T12:10:34;32.38;;;12.45;;
67965;SDS011;54749;47.850;9.002;2024-03-08T12:13:02;31.45;;;11.43;;
67965;SDS011;54749;47.850;9.002;2024-03-08T12:15:39;28.33;;;10.65;;
67965;SDS011;54749;47.850;9.002;2024-03-08T12:18:06;31.80;;;11.90;;
67965;SDS011;54749;47.850;9.002;2024-03-08T12:20:34;30.63;;;11.13;;
67965;SDS011;54749;47.850;9.002;2024-03-08T12:23:01;29.63;;;11.05;;
67965;SDS011;54749;47.850;9.002;2024-03-08T12:25:32;26.25;;;10.10;;
67965;SDS011;54749;47.850;9.002;2024-03-08T12:28:12;31.23;;;11.45;;
67965;SDS011;54749;47.850;9.002;2024-03-08T12:30:49;30.13;;;11.23;;
67965;SDS011;54749;47.850;9.002;2024-03-08T12:33:21;28.00;;;11.15;;
67965;SDS011;54749;47.850;9.002;2024-03-08T12:35:50;29.38;;;10.73;;
67965;SDS011;54749;47.850;9.002;2024-03-08T12:38:21;34.28;;;12.32;;
67965;SDS011;54749;47.850;9.002;2024-03-08T12:40:59;32.20;;;13.18;;
67965;SDS011;54749;47.850;9.002;2024-03-08T12:43:28;32.03;;;12.47;;
67965;SDS011;54749;47.850;9.002;2024-03-08T12:46:01;34.08;;;12.93;;
67965;SDS011;54749;47.850;9.002;2024-03-08T12:48:28;33.58;;;12.55;;
67965;SDS011;54749;47.850;9.002;2024-03-08T12:51:01;32.25;;;12.07;;
67965;SDS011;54749;47.850;9.002;2024-03-08T12:53:28;31.73;;;11.98;;
67965;SDS011;54749;47.850;9.002;2024-03-08T12:55:56;28.27;;;10.57;;
67965;SDS011;54749;47.850;9.002;2024-03-08T12:58:23;30.48;;;10.73;;
67965;SDS011;54749;47.850;9.002;2024-03-08T13:00:51;27.55;;;11.45;;
67965;SDS011;54749;47.850;9.002;2024-03-08T13:03:20;28.85;;;11.63;;
67965;SDS011;54749;47.850;9.002;2024-03-08T13:05:48;25.15;;;10.60;;
67965;SDS011;54749;47.850;9.002;2024-03-08T13:08:16;28.40;;;10.87;;
67965;SDS011;54749;47.850;9.002;2024-03-08T13:10:45;26.95;;;10.30;;
67965;SDS011;54749;47.850;9.002;2024-03-08T13:13:12;29.92;;;11.13;;
67965;SDS011;54749;47.850;9.002;2024-03-08T13:15:44;29.38;;;11.10;;
67965;SDS011;54749;47.850;9.002;2024-03-08T13:18:12;25.40;;;10.35;;
67965;SDS011;54749;47.850;9.002;2024-03-08T13:20:39;26.43;;;10.60;;
67965;SDS011;54749;47.850;9.002;2024-03-08T13:23:13;26.38;;;10.20;;
67965;SDS011;54749;47.850;9.002;2024-03-08T13:25:41;27.88;;;10.20;;
67965;SDS011;54749;47.850;9.002;2024-03-08T13:28:09;27.42;;;9.88;;
67965;SDS011;54749;47.850;9.002;2024-03-08T13:30:38;26.00;;;10.18;;
67965;SDS011;54749;47.850;9.002;2024-03-08T13:33:05;27.77;;;10.63;;
67965;SDS011;54749;47.850;9.002;2024-03-08T13:35:34;24.20;;;9.75;;
67965;SDS011;54749;47.850;9.002;2024-03-08T13:38:01;27.92;;;10.93;;
67965;SDS011;54749;47.850;9.002;2024-03-08T13:40:31;25.63;;;10.98;;
67965;SDS011;54749;47.850;9.002;2024-03-08T13:42:59;25.63;;;10.30;;
67965;SDS011;54749;47.850;9.002;2024-03-08T13:45:28;28.77;;;10.20;;
67965;SDS011;54749;47.850;9.002;2024-03-08T13:47:55;25.13;;;10.07;;
67965;SDS011;54749;47.850;9.002;2024-03-08T13:50:23;25.70;;;10.10;;
67965;SDS011;54749;47.850;9.002;2024-03-08T13:52:52;28.27;;;10.55;;
67965;SDS011;54749;47.850;9.002;2024-03-08T13:55:23;24.65;;;10.13;;
67965;SDS011;54749;47.850;9.002;2024-03-08T13:57:54;27.10;;;10.60;;
67965;SDS011;54749;47.850;9.002;2024-03-08T14:00:25;24.23;;;10.25;;
67965;SDS011;54749;47.850;9.002;2024-03-08T14:02:54;26.25;;;10.80;;
67965;SDS011;54749;47.850;9.002;2024-03-08T14:05:22;27.65;;;11.05;;
67965;SDS011;54749;47.850;9.002;2024-03-08T14:07:49;27.50;;;10.65;;
67965;SDS011;54749;47.850;9.002;2024-03-08T14:10:17;29.27;;;10.53;;
67965;SDS011;54749;47.850;9.002;2024-03-08T14:12:47;25.77;;;10.60;;
67965;SDS011;54749;47.850;9.002;2024-03-08T14:15:18;28.80;;;11.05;;
67965;SDS011;54749;47.850;9.002;2024-03-08T14:17:45;27.15;;;11.00;;
67965;SDS011;54749;47.850;9.002;2024-03-08T14:20:19;27.77;;;10.73;;
67965;SDS011;54749;47.850;9.002;2024-03-08T14:22:48;27.80;;;10.40;;
67965;SDS011;54749;47.850;9.002;2024-03-08T14:25:18;27.15;;;10.27;;
67965;SDS011;54749;47.850;9.002;2024-03-08T14:27:46;27.50;;;10.82;;
67965;SDS011;54749;47.850;9.002;2024-03-08T14:30:13;32.75;;;12.13;;
67965;SDS011;54749;47.850;9.002;2024-03-08T14:32:59;28.52;;;11.38;;
67965;SDS011;54749;47.850;9.002;2024-03-08T14:35:29;33.27;;;11.53;;
67965;SDS011;54749;47.850;9.002;2024-03-08T14:37:57;27.00;;;10.85;;